Airport View

Enter AWOS ICAO identifier for current METAR.

ex. KFNL

KAID 011215Z AUTO 22003KT 10SM CLR 06/04 A2997 RMK AO2 T00620044

1 Oct 2020 12:22

Frequency: 128.55

Phone: 765-378-1510

Other Area AWOS: KMIE - KMQJ - KMZZ - KTYQ

TAF KIND 011125Z 0112/0218 25006KT P6SM FEW250 FM011800 28012G20KT P6SM FEW035 SCT140 FM012000 29012G20KT P6SM VCSH SCT035 BKN120 FM012200 29011KT P6SM SCT035 BKN120 FM020000 30010KT P6SM SCT110